Time;durP1;ratioP1;P1;durP2;ratioP2;P2;SDS_P1;SDS_P2;PMS_P1;PMS_P2;Temp;Humidity;BMP_temperature;BMP_pressure;BME280_temperature;BME280_humidity;BME280_pressure;Samples;Min_cycle;Max_cycle;Signal;HPM_P1;HPM_P2
2023/10/08 00:01:25;;;;;;;0.10;0.10;;;;;;;20.58;67.21;102362.94;5101333;28;20498;-81
2023/10/08 00:03:53;;;;;;;0.40;0.40;;;;;;;20.57;66.72;102374.63;5099641;28;20394;-80
2023/10/08 00:06:21;;;;;;;0.10;0.10;;;;;;;20.42;67.68;102372.53;5099082;28;20019;-80
2023/10/08 00:08:47;;;;;;;0.00;0.00;;;;;;;20.47;67.21;102381.31;5099656;28;20024;-80
2023/10/08 00:11:15;;;;;;;0.00;0.00;;;;;;;20.46;67.00;102382.22;5110802;28;20054;-79
2023/10/08 00:13:43;;;;;;;10.32;1.48;;;;;;;20.38;67.44;102373.59;5120366;28;20022;-78
2023/10/08 00:16:11;;;;;;;0.55;0.55;;;;;;;20.38;67.34;102378.97;5111924;28;20099;-80
2023/10/08 00:18:41;;;;;;;0.10;0.10;;;;;;;20.32;67.49;102385.44;5105658;28;20123;-80
2023/10/08 00:23:52;;;;;;;0.10;0.10;;;;;;;20.30;67.43;102371.16;5151022;27;20381;-80
2023/10/08 00:26:27;;;;;;;0.00;0.00;;;;;;;20.27;67.55;102374.84;5131660;28;20019;-79
2023/10/08 00:28:54;;;;;;;0.45;0.45;;;;;;;20.31;67.42;102365.75;5122753;28;20028;-80
2023/10/08 00:31:23;;;;;;;0.30;0.30;;;;;;;20.30;67.38;102355.91;5110846;28;20153;-81
2023/10/08 00:33:49;;;;;;;0.10;0.10;;;;;;;20.33;66.97;102360.28;5111306;28;20038;-80
2023/10/08 00:36:19;;;;;;;0.10;0.10;;;;;;;20.30;67.16;102363.06;5110840;28;20032;-80
2023/10/08 00:38:51;;;;;;;0.80;0.73;;;;;;;20.30;67.29;102355.91;5109835;28;20028;-80
2023/10/08 00:41:21;;;;;;;0.10;0.10;;;;;;;20.27;67.47;102347.06;5110859;28;20024;-80
2023/10/08 00:43:50;;;;;;;0.70;0.70;;;;;;;20.34;67.12;102348.59;5111241;28;20505;-80
2023/10/08 00:46:23;;;;;;;0.00;0.00;;;;;;;20.40;66.87;102344.78;5110645;28;20502;-80
2023/10/08 00:48:54;;;;;;;0.10;0.10;;;;;;;20.44;66.63;102338.34;5107849;28;20036;-80
2023/10/08 00:54:06;;;;;;;0.00;0.00;;;;;;;20.44;66.47;102327.59;5124265;27;20388;-80
2023/10/08 00:57:05;;;;;;;0.10;0.10;;;;;;;20.43;66.46;102325.81;5110913;28;20393;-79
2023/10/08 00:59:22;;;;;;;0.05;0.05;;;;;;;20.43;66.37;102339.28;5104782;28;20031;-80
2023/10/08 01:01:51;;;;;;;0.30;0.30;;;;;;;20.41;66.39;102346.53;5096786;28;20052;-80
2023/10/08 01:04:23;;;;;;;0.10;0.10;;;;;;;20.42;66.29;102348.28;5093367;28;20027;-80
2023/10/08 01:06:56;;;;;;;;;;;;;;;20.49;65.97;102358.78;5096831;28;20450;-80
2023/10/08 01:09:31;;;;;;;0.10;0.10;;;;;;;20.35;66.38;102361.13;5095798;28;19907;-80
2023/10/08 01:12:19;;;;;;;0.00;0.00;;;;;;;20.35;66.24;102364.69;5096010;28;20027;-80
2023/10/08 01:14:47;;;;;;;1.30;1.27;;;;;;;20.26;66.36;102354.25;5096350;28;20031;-80
2023/10/08 01:17:16;;;;;;;0.10;0.10;;;;;;;20.24;66.76;102360.59;5105046;28;20027;-80
2023/10/08 01:19:45;;;;;;;0.22;0.22;;;;;;;20.20;66.63;102362.56;5090017;28;20035;-80
2023/10/08 01:22:18;;;;;;;0.10;0.10;;;;;;;20.18;66.79;102362.59;5093716;28;20027;-80
2023/10/08 01:24:47;;;;;;;0.10;0.10;;;;;;;20.16;66.72;102363.59;5101872;28;20023;-80
2023/10/08 01:27:20;;;;;;;0.10;0.10;;;;;;;20.12;66.67;102357.44;5105426;28;20027;-80
2023/10/08 01:29:46;;;;;;;0.10;0.10;;;;;;;20.11;66.84;102362.88;5099396;28;20032;-80
2023/10/08 01:32:16;;;;;;;0.15;0.15;;;;;;;20.08;67.06;102361.19;5095921;28;20024;-80
2023/10/08 01:34:45;;;;;;;0.10;0.10;;;;;;;20.09;66.97;102352.19;5100173;28;20038;-81
2023/10/08 01:37:14;;;;;;;0.20;0.20;;;;;;;20.10;66.93;102358.44;5092373;28;20057;-79
2023/10/08 01:39:42;;;;;;;0.10;0.10;;;;;;;20.07;67.12;102369.31;5099778;28;20100;-81
2023/10/08 01:42:17;;;;;;;0.10;0.10;;;;;;;20.06;67.40;102370.25;5098479;28;20077;-80
2023/10/08 01:44:46;;;;;;;0.45;0.45;;;;;;;20.07;67.23;102363.94;5095113;28;20096;-80
2023/10/08 01:47:13;;;;;;;0.15;0.15;;;;;;;20.08;66.98;102369.25;5098097;28;20032;-80
2023/10/08 01:49:40;;;;;;;0.10;0.10;;;;;;;20.06;67.34;102368.41;5095647;28;20124;-79
2023/10/08 01:52:13;;;;;;;0.10;0.10;;;;;;;20.08;67.17;102379.16;5102241;28;20020;-80
2023/10/08 01:54:40;;;;;;;0.10;0.10;;;;;;;20.07;67.32;102380.06;5103756;28;20051;-79
2023/10/08 01:57:09;;;;;;;0.10;0.10;;;;;;;20.08;67.18;102397.97;5100225;28;20035;-80
2023/10/08 01:59:37;;;;;;;0.10;0.10;;;;;;;20.08;67.10;102392.59;5090394;28;20024;-80
2023/10/08 02:02:05;;;;;;;0.10;0.10;;;;;;;20.07;67.34;102406.97;5088618;28;20077;-79
2023/10/08 02:04:33;;;;;;;0.30;0.30;;;;;;;20.07;67.38;102407.84;5082806;28;20051;-80
2023/10/08 02:07:00;;;;;;;0.38;0.38;;;;;;;20.06;67.55;102410.59;5089469;28;20039;-78
2023/10/08 02:09:26;;;;;;;0.30;0.30;;;;;;;20.06;67.73;102399.84;5087428;28;20040;-80
2023/10/08 02:11:53;;;;;;;0.10;0.10;;;;;;;20.09;67.68;102415.84;5091318;28;20155;-80
2023/10/08 02:14:22;;;;;;;0.10;0.10;;;;;;;20.09;67.98;102402.41;5087765;28;20031;-79
2023/10/08 02:16:49;;;;;;;0.10;0.10;;;;;;;20.10;67.92;102393.41;5079706;28;20522;-80
2023/10/08 02:19:18;;;;;;;0.35;0.35;;;;;;;20.11;68.25;102392.47;5088522;28;20166;-80
2023/10/08 02:21:46;;;;;;;0.22;0.22;;;;;;;20.12;67.78;102395.09;5089423;28;20394;-77
2023/10/08 02:24:12;;;;;;;0.10;0.10;;;;;;;20.14;68.22;102392.38;5085341;28;20024;-80
2023/10/08 02:26:40;;;;;;;2.65;0.50;;;;;;;20.12;68.67;102394.25;5089198;28;20402;-78
2023/10/08 02:29:10;;;;;;;0.10;0.10;;;;;;;20.14;68.78;102389.69;5083709;28;20044;-79
2023/10/08 02:31:38;;;;;;;2.45;0.77;;;;;;;20.17;68.42;102368.03;5086306;28;20032;-80
2023/10/08 02:34:07;;;;;;;0.10;0.10;;;;;;;20.17;68.68;102382.34;5078871;28;20036;-80
2023/10/08 02:36:36;;;;;;;0.30;0.30;;;;;;;20.24;67.92;102376.75;5087394;28;20035;-80
2023/10/08 02:39:13;;;;;;;0.10;0.10;;;;;;;20.22;68.29;102384.91;5087011;28;20408;-79
2023/10/08 02:41:41;;;;;;;0.13;0.13;;;;;;;20.25;68.23;102400.94;5087429;28;20048;-80
2023/10/08 02:44:13;;;;;;;0.17;0.17;;;;;;;20.27;67.91;102401.75;5088449;28;20038;-80
2023/10/08 02:46:42;;;;;;;0.00;0.00;;;;;;;20.28;67.89;102406.19;5075277;28;20031;-79
2023/10/08 02:49:12;;;;;;;0.10;0.10;;;;;;;20.28;67.87;102406.19;5086342;28;20113;-79
2023/10/08 02:51:41;;;;;;;0.10;0.10;;;;;;;20.26;68.20;102402.72;5083266;28;20500;-80
2023/10/08 02:54:16;;;;;;;0.10;0.10;;;;;;;20.25;68.35;102392.88;5087958;28;20395;-80
2023/10/08 02:56:44;;;;;;;0.10;0.10;;;;;;;20.24;68.42;102390.22;5083518;28;20450;-79
2023/10/08 02:59:12;;;;;;;0.10;0.10;;;;;;;20.26;68.22;102391.03;5077342;28;20039;-78
2023/10/08 03:01:39;;;;;;;0.10;0.10;;;;;;;20.23;68.62;102402.81;5081134;28;20054;-79
2023/10/08 03:04:17;;;;;;;3.08;0.90;;;;;;;20.25;68.25;102397.34;5079727;28;20113;-80
2023/10/08 03:06:45;;;;;;;0.10;0.10;;;;;;;20.24;67.93;102399.19;5084814;28;20503;-80
2023/10/08 03:09:13;;;;;;;0.10;0.10;;;;;;;20.22;68.09;102417.19;5086196;28;20523;-80
2023/10/08 03:11:39;;;;;;;0.10;0.10;;;;;;;20.20;68.50;102413.69;5086193;28;20020;-80
2023/10/08 03:14:14;;;;;;;0.32;0.32;;;;;;;20.20;68.13;102397.53;5090385;28;20032;-78
2023/10/08 03:16:41;;;;;;;0.10;0.10;;;;;;;20.20;68.11;102392.16;5088641;28;20020;-80
2023/10/08 03:19:08;;;;;;;0.28;0.28;;;;;;;20.19;68.17;102396.66;5084470;28;20554;-79
2023/10/08 03:24:48;;;;;;;0.00;0.00;;;;;;;20.16;68.06;102390.50;5122096;27;20387;-80
2023/10/08 03:27:06;;;;;;;0.10;0.10;;;;;;;20.14;68.11;102398.63;5111660;28;20036;-80
2023/10/08 03:29:40;;;;;;;0.00;0.00;;;;;;;20.14;68.13;102403.16;5113827;28;20107;-81
2023/10/08 03:32:12;;;;;;;0.00;0.00;;;;;;;20.11;67.96;102405.94;5114579;28;20060;-80
2023/10/08 03:34:43;;;;;;;0.28;0.28;;;;;;;20.07;68.09;102404.28;5114906;28;20031;-80
2023/10/08 03:37:10;;;;;;;0.05;0.05;;;;;;;20.04;68.13;102413.34;5110129;28;20442;-80
2023/10/08 03:39:50;;;;;;;0.00;0.00;;;;;;;20.00;68.21;102423.34;5113522;28;20370;-80
2023/10/08 03:42:22;;;;;;;0.10;0.10;;;;;;;19.99;68.11;102437.72;5107296;28;20115;-80
2023/10/08 03:44:52;;;;;;;;;;;;;;;20.07;67.91;102434.75;5105369;28;20085;-80
2023/10/08 03:47:22;;;;;;;0.10;0.10;;;;;;;19.94;68.45;102433.41;5107175;28;19987;-79
2023/10/08 03:49:51;;;;;;;0.10;0.10;;;;;;;19.92;68.26;102435.28;5107633;28;20048;-80
2023/10/08 03:52:23;;;;;;;0.10;0.10;;;;;;;19.91;68.53;102445.16;5103591;28;20027;-80
2023/10/08 03:55:04;;;;;;;0.30;0.30;;;;;;;19.91;68.48;102447.84;5111247;28;20073;-79
2023/10/08 03:57:41;;;;;;;0.10;0.10;;;;;;;19.88;68.42;102446.13;5113369;28;20024;-79
2023/10/08 04:00:13;;;;;;;0.00;0.00;;;;;;;19.88;68.49;102445.28;5112027;28;20638;-80
2023/10/08 04:02:41;;;;;;;0.40;0.40;;;;;;;19.85;68.76;102446.25;5102937;28;20085;-80
2023/10/08 04:05:18;;;;;;;1.45;0.90;;;;;;;19.85;68.70;102450.75;5107078;28;20587;-80
2023/10/08 04:08:16;;;;;;;0.45;0.45;;;;;;;19.83;68.73;102466.94;5102544;28;20028;-81
2023/10/08 04:13:19;;;;;;;0.10;0.10;;;;;;;19.80;68.96;102487.63;5061403;28;20394;-79
2023/10/08 04:15:46;;;;;;;0.03;0.03;;;;;;;19.77;69.11;102485.06;5065211;28;20437;-80
2023/10/08 04:18:13;;;;;;;0.43;0.43;;;;;;;19.75;68.80;102481.53;5066373;28;20025;-80
2023/10/08 04:20:39;;;;;;;0.08;0.08;;;;;;;19.71;68.98;102470.91;5056848;28;20021;-79
2023/10/08 04:23:24;;;;;;;0.47;0.47;;;;;;;19.72;69.35;102469.94;5049329;28;20037;-79
2023/10/08 04:25:54;;;;;;;0.10;0.10;;;;;;;19.72;69.11;102483.38;5053872;28;20056;-78
2023/10/08 04:28:21;;;;;;;0.10;0.10;;;;;;;19.71;69.01;102480.75;5063415;28;20040;-79
2023/10/08 04:30:48;;;;;;;0.43;0.35;;;;;;;19.69;68.82;102486.19;5055384;28;20029;-79
2023/10/08 04:33:14;;;;;;;0.38;0.38;;;;;;;19.66;69.17;102490.78;5052347;28;20031;-80
2023/10/08 04:35:55;;;;;;;0.10;0.10;;;;;;;19.65;69.13;102486.31;5057591;28;20022;-80
2023/10/08 04:38:25;;;;;;;0.10;0.10;;;;;;;19.62;69.09;102487.31;5044233;28;20033;-80
2023/10/08 04:40:52;;;;;;;0.10;0.10;;;;;;;19.60;69.18;102470.38;5049016;28;20045;-79
2023/10/08 04:43:24;;;;;;;0.22;0.22;;;;;;;19.61;69.11;102469.41;5061411;28;20021;-80
2023/10/08 04:45:51;;;;;;;0.10;0.10;;;;;;;19.59;69.25;102479.34;5045286;28;20509;-80
2023/10/08 04:48:20;;;;;;;0.10;0.10;;;;;;;19.59;69.21;102494.59;5054983;28;20021;-80
2023/10/08 04:50:58;;;;;;;0.13;0.13;;;;;;;19.52;70.51;102493.91;5049570;28;20392;-80
2023/10/08 04:56:05;;;;;;;0.73;0.73;;;;;;;19.49;71.54;102483.25;5073846;28;20393;-80
2023/10/08 04:58:36;;;;;;;0.38;0.38;;;;;;;19.50;70.74;102487.69;5055717;28;20030;-80
2023/10/08 05:01:18;;;;;;;0.10;0.10;;;;;;;19.51;70.41;102484.09;5057261;28;20456;-80
2023/10/08 05:14:56;;;;;;;0.10;0.10;;;;;;;19.26;69.95;102492.91;5093596;28;20044;-80
2023/10/08 05:17:22;;;;;;;0.10;0.10;;;;;;;19.19;70.33;102494.91;5093165;28;20421;-81
2023/10/08 05:20:17;;;;;;;0.20;0.20;;;;;;;19.17;69.97;102495.88;5088267;28;20028;-79
2023/10/08 05:30:38;;;;;;;0.30;0.30;;;;;;;19.10;70.00;102505.03;5069991;28;20375;-78
2023/10/08 05:33:12;;;;;;;0.10;0.10;;;;;;;19.08;69.78;102514.03;5066058;28;20459;-79
2023/10/08 05:41:27;;;;;;;0.00;0.00;;;;;;;19.01;69.56;102501.69;5117672;27;20904;-78
2023/10/08 05:44:38;;;;;;;0.03;0.03;;;;;;;19.00;69.45;102491.88;5094469;28;20032;-79
2023/10/08 05:46:49;;;;;;;0.00;0.00;;;;;;;19.00;69.59;102494.53;5066001;28;20037;-78
2023/10/08 05:49:26;;;;;;;0.10;0.10;;;;;;;19.00;69.33;102491.00;5078444;28;20051;-78
2023/10/08 06:13:16;;;;;;;0.10;0.10;;;;;;;18.79;69.44;102524.69;5112454;27;20358;-78
2023/10/08 06:15:48;;;;;;;0.52;0.52;;;;;;;18.78;69.53;102536.34;5097790;28;20028;-78
2023/10/08 06:18:19;;;;;;;0.10;0.10;;;;;;;18.78;69.44;102549.75;5100945;28;20460;-80
2023/10/08 06:20:46;;;;;;;0.65;0.65;;;;;;;18.78;69.29;102555.13;5087346;28;20048;-80
2023/10/08 06:23:18;;;;;;;0.10;0.10;;;;;;;18.76;69.50;102557.88;5098034;28;20028;-80
2023/10/08 06:25:44;;;;;;;;;;;;;;;18.86;69.19;102559.38;5094754;28;20035;-80
2023/10/08 06:28:19;;;;;;;0.10;0.10;;;;;;;18.76;69.46;102572.16;5090708;28;20295;-80
2023/10/08 06:30:46;;;;;;;0.10;0.10;;;;;;;18.70;69.81;102572.31;5093103;28;20107;-80
2023/10/08 06:33:13;;;;;;;0.17;0.17;;;;;;;18.71;69.89;102576.78;5091452;28;20027;-80
2023/10/08 06:35:44;;;;;;;0.10;0.10;;;;;;;18.66;70.23;102581.41;5090914;28;20162;-80
2023/10/08 06:38:11;;;;;;;0.20;0.20;;;;;;;18.68;69.85;102584.03;5095138;28;20180;-80
2023/10/08 06:43:16;;;;;;;1.63;1.00;;;;;;;18.58;70.13;102562.81;5108134;27;20108;-80
2023/10/08 06:45:44;;;;;;;0.20;0.20;;;;;;;18.53;70.61;102562.06;5096299;28;20039;-80
2023/10/08 06:48:18;;;;;;;1.50;1.45;;;;;;;18.57;69.96;102570.91;5091757;28;20032;-80
2023/10/08 06:50:45;;;;;;;0.10;0.10;;;;;;;18.61;69.88;102572.59;5096183;28;20036;-78
2023/10/08 06:53:14;;;;;;;0.20;0.20;;;;;;;18.58;69.54;102578.91;5081867;28;20028;-80
2023/10/08 06:55:41;;;;;;;0.70;0.50;;;;;;;18.59;69.49;102588.75;5094580;28;20104;-80
2023/10/08 06:58:08;;;;;;;0.00;0.00;;;;;;;18.59;69.53;102590.53;5102455;28;20033;-80
2023/10/08 07:00:39;;;;;;;0.10;0.10;;;;;;;18.62;69.21;102595.84;5090259;28;20028;-80
2023/10/08 07:03:10;;;;;;;0.80;0.80;;;;;;;18.64;69.03;102594.00;5103221;28;20024;-81
2023/10/08 07:05:40;;;;;;;0.10;0.10;;;;;;;18.61;68.93;102590.50;5094567;28;20512;-82
2023/10/08 07:08:07;;;;;;;0.20;0.20;;;;;;;18.64;68.67;102603.84;5088453;28;20048;-79
2023/10/08 07:10:34;;;;;;;0.68;0.68;;;;;;;18.59;68.49;102602.16;5099948;28;20028;-81
2023/10/08 07:13:02;;;;;;;0.10;0.10;;;;;;;18.62;68.42;102611.94;5094463;28;20017;-81
2023/10/08 07:15:30;;;;;;;0.10;0.10;;;;;;;18.62;68.23;102606.56;5092208;28;20024;-79
2023/10/08 07:17:56;;;;;;;0.70;0.70;;;;;;;18.59;68.21;102606.63;5100229;28;20038;-82
2023/10/08 07:20:22;;;;;;;0.43;0.43;;;;;;;18.59;68.33;102618.28;5103023;28;20035;-81
2023/10/08 07:22:54;;;;;;;1.02;0.40;;;;;;;18.53;68.22;102610.38;5108689;28;20028;-80
2023/10/08 07:25:21;;;;;;;0.10;0.10;;;;;;;18.50;68.01;102612.25;5090700;28;20063;-80
2023/10/08 07:27:47;;;;;;;0.57;0.57;;;;;;;18.49;68.26;102637.31;5086780;28;20108;-79
2023/10/08 07:30:26;;;;;;;2.75;0.43;;;;;;;18.48;68.48;102625.72;5099957;28;20020;-80
2023/10/08 07:32:54;;;;;;;0.10;0.10;;;;;;;18.46;68.05;102632.03;5087966;28;20032;-77
2023/10/08 07:38:10;;;;;;;0.10;0.10;;;;;;;18.42;68.19;102644.66;5087855;27;20420;-79
2023/10/08 07:40:37;;;;;;;0.60;0.60;;;;;;;18.37;68.08;102652.81;5098431;28;20024;-78
2023/10/08 07:43:08;;;;;;;0.03;0.03;;;;;;;18.36;67.99;102642.13;5079808;28;20048;-78
2023/10/08 07:45:35;;;;;;;0.43;0.43;;;;;;;18.32;68.41;102629.66;5093400;28;20020;-79
2023/10/08 07:48:06;;;;;;;1.30;1.27;;;;;;;18.33;68.17;102643.06;5093737;28;20021;-79
2023/10/08 07:50:32;;;;;;;0.10;0.10;;;;;;;18.30;68.15;102651.19;5091675;28;20455;-78
2023/10/08 07:52:58;;;;;;;0.25;0.25;;;;;;;18.34;68.18;102655.53;5091440;28;20189;-79
2023/10/08 07:55:24;;;;;;;0.30;0.30;;;;;;;18.31;68.11;102654.75;5095739;28;20100;-78
2023/10/08 07:57:50;;;;;;;0.20;0.20;;;;;;;18.30;68.13;102663.72;5086101;28;20024;-79
2023/10/08 08:00:22;;;;;;;0.08;0.08;;;;;;;18.29;68.15;102659.28;5090639;28;20020;-79
2023/10/08 08:02:49;;;;;;;;;;;;;;;18.48;67.79;102662.38;5075508;28;20063;-79
2023/10/08 08:05:17;;;;;;;0.10;0.10;;;;;;;18.40;68.15;102671.50;5083360;28;19919;-79
2023/10/08 08:07:46;;;;;;;0.00;0.00;;;;;;;18.45;68.13;102670.53;5084934;28;20369;-78
2023/10/08 08:10:14;;;;;;;0.40;0.40;;;;;;;18.49;68.18;102675.78;5104314;28;20039;-79
2023/10/08 08:12:40;;;;;;;0.10;0.10;;;;;;;18.50;68.29;102671.28;5089572;28;20025;-78
2023/10/08 08:15:14;;;;;;;0.10;0.10;;;;;;;18.56;68.04;102681.88;5098167;28;20028;-79
2023/10/08 08:17:42;;;;;;;0.20;0.20;;;;;;;18.53;67.93;102680.16;5087750;28;20024;-78
2023/10/08 08:20:34;;;;;;;0.15;0.15;;;;;;;18.53;67.90;102680.16;5083780;28;20030;-79
2023/10/08 08:22:54;;;;;;;0.10;0.10;;;;;;;18.58;67.81;102685.44;5085260;28;20037;-78
2023/10/08 08:25:34;;;;;;;0.10;0.10;;;;;;;18.58;67.85;102680.06;5084660;28;20024;-80
2023/10/08 08:28:00;;;;;;;0.10;0.10;;;;;;;18.63;67.84;102686.19;5093859;28;20107;-80
2023/10/08 08:30:26;;;;;;;0.00;0.00;;;;;;;18.69;67.82;102693.19;5090415;27;20401;-80
2023/10/08 08:32:54;;;;;;;0.32;0.32;;;;;;;18.74;67.44;102704.69;5098155;28;20043;-80
2023/10/08 08:35:20;;;;;;;0.95;0.90;;;;;;;18.69;66.52;102706.63;5085035;28;20493;-80
2023/10/08 08:37:47;;;;;;;0.30;0.30;;;;;;;18.78;66.70;102709.09;5081385;28;20102;-80
2023/10/08 08:40:28;;;;;;;0.10;0.10;;;;;;;18.79;66.66;102709.97;5089056;28;20620;-81
2023/10/08 08:42:58;;;;;;;0.00;0.00;;;;;;;18.85;66.86;102705.31;5100517;28;20540;-80
2023/10/08 08:45:24;;;;;;;0.10;0.10;;;;;;;18.92;66.88;102711.47;5095407;28;20530;-79
2023/10/08 08:47:51;;;;;;;0.10;0.10;;;;;;;18.81;65.17;102705.44;5089175;28;20083;-80
2023/10/08 08:50:19;;;;;;;0.57;0.57;;;;;;;18.89;65.85;102716.88;5085078;28;20028;-80
2023/10/08 08:52:45;;;;;;;0.20;0.20;;;;;;;18.93;65.62;102713.22;5078596;28;20031;-80
2023/10/08 08:55:16;;;;;;;0.10;0.10;;;;;;;18.93;65.75;102707.88;5087323;28;20093;-80
2023/10/08 08:57:46;;;;;;;0.30;0.30;;;;;;;18.98;65.90;102699.66;5082938;28;20061;-80
2023/10/08 09:00:14;;;;;;;0.10;0.10;;;;;;;19.00;65.63;102704.06;5087447;28;20032;-80
2023/10/08 09:02:41;;;;;;;0.10;0.10;;;;;;;19.07;65.41;102700.31;5088537;28;20131;-80
2023/10/08 09:05:40;;;;;;;0.10;0.10;;;;;;;19.12;65.37;102702.00;5089210;28;20486;-79
2023/10/08 09:07:56;;;;;;;0.28;0.28;;;;;;;19.18;65.28;102691.09;5074593;28;20040;-80
2023/10/08 09:10:27;;;;;;;0.00;0.00;;;;;;;19.24;64.88;102691.81;5078041;28;20028;-79
2023/10/08 09:12:57;;;;;;;0.10;0.10;;;;;;;19.23;63.68;102694.53;5077098;28;20032;-77
2023/10/08 09:15:25;;;;;;;0.10;0.10;;;;;;;19.30;64.40;102696.16;5085526;28;20027;-79
2023/10/08 09:17:53;;;;;;;0.52;0.52;;;;;;;19.36;64.39;102693.25;5073570;28;20033;-77
2023/10/08 09:20:20;;;;;;;0.80;0.17;;;;;;;19.38;64.47;102701.31;5072767;28;20028;-79
2023/10/08 09:23:07;;;;;;;0.17;0.17;;;;;;;19.39;64.25;102695.88;5076364;28;20154;-79
2023/10/08 09:25:34;;;;;;;0.10;0.10;;;;;;;19.42;63.51;102699.41;5060037;28;20118;-81
2023/10/08 09:28:00;;;;;;;0.00;0.00;;;;;;;19.48;64.04;102688.50;5081339;28;20025;-79
2023/10/08 09:30:29;;;;;;;0.45;0.45;;;;;;;19.48;63.15;102684.00;5068535;28;20043;-78
2023/10/08 09:32:56;;;;;;;0.30;0.30;;;;;;;19.54;63.10;102685.63;5081426;28;20025;-79
2023/10/08 09:35:24;;;;;;;0.10;0.10;;;;;;;19.60;64.10;102671.13;5071217;28;20083;-79
2023/10/08 09:37:51;;;;;;;0.00;0.00;;;;;;;19.71;64.04;102680.66;5073681;28;20028;-80
2023/10/08 09:40:21;;;;;;;0.10;0.10;;;;;;;19.77;63.78;102701.09;5066209;28;20060;-80
2023/10/08 09:42:48;;;;;;;0.10;0.10;;;;;;;19.69;63.52;102695.94;5083606;28;20112;-79
2023/10/08 09:45:14;;;;;;;0.10;0.10;;;;;;;19.73;62.95;102702.97;5088211;28;20024;-80
2023/10/08 09:47:47;;;;;;;0.00;0.00;;;;;;;19.67;62.56;102700.47;5075707;28;20052;-80
2023/10/08 09:50:15;;;;;;;0.10;0.10;;;;;;;19.72;63.31;102695.84;5085851;28;20021;-79
2023/10/08 09:53:07;;;;;;;1.25;1.17;;;;;;;19.77;62.02;102681.41;5076152;28;20032;-79
2023/10/08 09:55:35;;;;;;;;;;;;;;;19.85;62.20;102674.00;5083051;28;20115;-79
2023/10/08 09:58:01;;;;;;;0.20;0.20;;;;;;;19.78;62.11;102672.41;5090563;28;19965;-78
2023/10/08 10:00:30;;;;;;;0.98;0.90;;;;;;;19.80;62.47;102673.22;5080218;28;20028;-79
2023/10/08 10:03:01;;;;;;;0.03;0.03;;;;;;;19.68;61.80;102675.34;5090687;28;20391;-79
2023/10/08 10:05:30;;;;;;;0.10;0.10;;;;;;;19.81;62.15;102694.72;5075633;28;20029;-79
2023/10/08 10:07:57;;;;;;;0.10;0.10;;;;;;;19.80;62.01;102681.28;5068184;28;20036;-80
2023/10/08 10:10:31;;;;;;;0.10;0.10;;;;;;;19.88;62.36;102677.47;5086872;28;20032;-79
2023/10/08 10:13:00;;;;;;;0.08;0.08;;;;;;;19.90;62.45;102687.31;5074797;28;20029;-79
2023/10/08 10:15:26;;;;;;;0.10;0.10;;;;;;;19.92;62.29;102685.47;5091772;28;20031;-79
2023/10/08 10:17:52;;;;;;;0.20;0.20;;;;;;;19.97;62.38;102696.97;5076397;28;20492;-80
2023/10/08 10:20:21;;;;;;;0.20;0.20;;;;;;;19.96;61.86;102696.09;5079165;28;20031;-80
2023/10/08 10:22:47;;;;;;;0.17;0.17;;;;;;;19.97;61.84;102697.84;5076173;28;20021;-80
2023/10/08 10:25:17;;;;;;;0.08;0.08;;;;;;;20.02;62.25;102700.41;5068134;28;20053;-78
2023/10/08 10:30:41;;;;;;;0.05;0.05;;;;;;;20.06;61.85;102714.63;5111318;27;20513;-78
2023/10/08 10:33:07;;;;;;;1.25;0.80;;;;;;;20.00;62.20;102710.31;5111705;28;20027;-80
2023/10/08 10:35:40;;;;;;;0.00;0.00;;;;;;;19.97;61.41;102705.91;5111204;28;20077;-80
2023/10/08 10:38:06;;;;;;;0.10;0.10;;;;;;;19.92;61.77;102710.53;5111816;28;20408;-77
2023/10/08 10:40:39;;;;;;;0.10;0.10;;;;;;;19.97;61.64;102707.72;5103907;28;20458;-79
2023/10/08 10:43:06;;;;;;;0.10;0.10;;;;;;;20.00;61.82;102702.25;5101523;28;20497;-80
2023/10/08 10:45:36;;;;;;;0.10;0.10;;;;;;;20.04;62.03;102712.00;5104575;28;20158;-77
2023/10/08 10:51:17;;;;;;;1.08;1.00;;;;;;;20.08;61.84;102710.97;5111787;27;20359;-80
2023/10/08 10:54:07;;;;;;;0.10;0.10;;;;;;;20.07;61.14;102700.25;5113636;27;20044;-80
2023/10/08 10:56:29;;;;;;;0.00;0.00;;;;;;;20.10;61.45;102692.09;5111643;28;20467;-80
2023/10/08 10:59:18;;;;;;;1.08;0.57;;;;;;;20.28;61.64;102696.03;5107253;28;20016;-80
2023/10/08 11:01:52;;;;;;;0.15;0.15;;;;;;;20.34;61.08;102691.31;5098349;28;20319;-79
2023/10/08 11:04:19;;;;;;;0.08;0.08;;;;;;;20.35;60.92;102690.38;5103318;28;20058;-81
2023/10/08 11:06:50;;;;;;;0.08;0.08;;;;;;;20.41;60.83;102686.63;5101730;28;20024;-80
2023/10/08 11:09:30;;;;;;;0.70;0.70;;;;;;;20.49;60.86;102689.06;5106828;28;20518;-80
2023/10/08 11:11:59;;;;;;;0.10;0.10;;;;;;;20.55;60.56;102685.28;5104470;28;20110;-80
2023/10/08 11:14:26;;;;;;;0.00;0.00;;;;;;;20.61;61.03;102679.69;5100402;28;20486;-81
2023/10/08 11:16:52;;;;;;;0.10;0.10;;;;;;;20.57;60.24;102678.03;5101124;28;20085;-80
2023/10/08 11:19:20;;;;;;;0.10;0.10;;;;;;;20.69;60.02;102678.50;5096036;28;20051;-80
2023/10/08 11:21:53;;;;;;;0.45;0.45;;;;;;;20.81;60.30;102674.56;5099995;28;20077;-80
2023/10/08 11:24:34;;;;;;;0.10;0.10;;;;;;;20.90;59.57;102673.38;5100414;28;20399;-81
2023/10/08 11:27:17;;;;;;;0.57;0.57;;;;;;;20.79;59.98;102676.41;5101657;28;20174;-79
2023/10/08 11:29:47;;;;;;;0.38;0.38;;;;;;;20.86;59.64;102682.50;5097149;28;20387;-78
2023/10/08 11:32:17;;;;;;;0.00;0.00;;;;;;;21.03;59.99;102678.34;5101341;28;20162;-80
2023/10/08 11:34:49;;;;;;;0.25;0.25;;;;;;;21.05;59.26;102671.06;5098177;28;20021;-80
2023/10/08 11:37:33;;;;;;;0.10;0.10;;;;;;;21.30;59.14;102671.09;5094996;28;20498;-81
2023/10/08 11:39:59;;;;;;;0.20;0.20;;;;;;;21.33;59.03;102668.25;5098984;28;20101;-81
2023/10/08 11:42:43;;;;;;;0.20;0.20;;;;;;;21.37;58.63;102669.03;5102497;28;20425;-79
2023/10/08 11:45:17;;;;;;;0.20;0.20;;;;;;;21.36;58.60;102669.97;5097589;28;20028;-79
2023/10/08 11:47:45;;;;;;;0.00;0.00;;;;;;;21.42;58.44;102665.25;5103373;28;20039;-79
2023/10/08 11:50:17;;;;;;;0.10;0.10;;;;;;;21.35;58.45;102674.47;5106149;28;20048;-79
2023/10/08 11:52:43;;;;;;;0.00;0.00;;;;;;;21.34;57.65;102664.63;5104947;28;20034;-78
2023/10/08 11:55:14;;;;;;;0.00;0.00;;;;;;;21.27;57.72;102665.78;5105968;28;20040;-79
2023/10/08 11:57:45;;;;;;;0.00;0.00;;;;;;;21.32;57.79;102663.78;5105934;28;20024;-79
2023/10/08 12:00:20;;;;;;;0.10;0.10;;;;;;;21.48;58.51;102653.31;5099891;28;20028;-80
2023/10/08 12:02:48;;;;;;;0.10;0.10;;;;;;;21.57;57.99;102661.13;5091791;28;20043;-80
2023/10/08 12:05:30;;;;;;;0.00;0.00;;;;;;;21.62;57.94;102651.03;5092053;28;20033;-78
2023/10/08 12:07:57;;;;;;;0.08;0.08;;;;;;;21.61;58.01;102646.56;5085826;28;20423;-78
2023/10/08 12:10:24;;;;;;;0.10;0.10;;;;;;;21.61;57.73;102643.88;5099472;28;20020;-78
2023/10/08 12:12:55;;;;;;;0.10;0.10;;;;;;;21.60;57.90;102636.72;5090928;28;20071;-81
2023/10/08 12:15:22;;;;;;;0.10;0.10;;;;;;;21.46;57.63;102636.34;5086426;28;20020;-81
2023/10/08 12:18:15;;;;;;;0.40;0.35;;;;;;;21.54;57.81;102631.53;5087677;28;20028;-80
2023/10/08 12:20:37;;;;;;;0.10;0.10;;;;;;;21.46;57.57;102617.47;5082282;28;20115;-80
2023/10/08 12:23:04;;;;;;;0.00;0.00;;;;;;;21.55;58.28;102622.50;5082365;28;20024;-80
2023/10/08 12:25:32;;;;;;;0.10;0.10;;;;;;;21.49;58.41;102612.81;5091338;28;20028;-80
2023/10/08 12:28:03;;;;;;;0.60;0.60;;;;;;;21.57;58.49;102609.88;5086018;28;20169;-80
2023/10/08 12:30:30;;;;;;;0.17;0.17;;;;;;;21.54;58.19;102599.16;5088607;28;20024;-79
2023/10/08 12:33:00;;;;;;;0.10;0.10;;;;;;;21.67;58.19;102598.72;5084565;28;20040;-80
2023/10/08 12:35:29;;;;;;;0.00;0.00;;;;;;;21.70;58.32;102604.00;5086413;28;20028;-81
2023/10/08 12:37:55;;;;;;;0.63;0.63;;;;;;;21.85;58.04;102594.44;5086453;28;20040;-80
2023/10/08 12:40:22;;;;;;;0.63;0.60;;;;;;;21.90;58.50;102598.69;5082929;28;20028;-82
2023/10/08 12:42:50;;;;;;;0.03;0.03;;;;;;;21.98;57.91;102598.38;5078515;28;20032;-82
2023/10/08 12:45:20;;;;;;;0.10;0.10;;;;;;;22.05;57.71;102599.03;5090698;28;20051;-81
2023/10/08 12:47:49;;;;;;;0.13;0.13;;;;;;;22.11;57.78;102593.38;5081487;28;20426;-82
2023/10/08 12:50:16;;;;;;;0.20;0.20;;;;;;;22.07;57.53;102592.63;5095151;28;21331;-81
2023/10/08 12:52:52;;;;;;;0.38;0.32;;;;;;;21.97;57.61;102584.00;5092813;28;20033;-82